sensor_id;sensor_type;location;lat;lon;timestamp;temperature;humidity
4564;DHT22;2294;51.818;8.484;2022-12-10T00:00:42;1.90;99.90
4564;DHT22;2294;51.818;8.484;2022-12-10T00:03:09;2.00;99.90
4564;DHT22;2294;51.818;8.484;2022-12-10T00:05:36;2.00;99.90
4564;DHT22;2294;51.818;8.484;2022-12-10T00:08:03;2.10;99.90
4564;DHT22;2294;51.818;8.484;2022-12-10T00:10:30;2.10;99.90
4564;DHT22;2294;51.818;8.484;2022-12-10T00:12:58;2.10;99.90
4564;DHT22;2294;51.818;8.484;2022-12-10T00:15:25;2.10;99.90
4564;DHT22;2294;51.818;8.484;2022-12-10T00:17:52;2.20;99.90
4564;DHT22;2294;51.818;8.484;2022-12-10T00:20:19;2.20;99.90
4564;DHT22;2294;51.818;8.484;2022-12-10T00:22:46;2.10;99.90
4564;DHT22;2294;51.818;8.484;2022-12-10T00:25:12;2.00;99.90
4564;DHT22;2294;51.818;8.484;2022-12-10T00:27:39;2.00;99.90
4564;DHT22;2294;51.818;8.484;2022-12-10T00:30:09;2.00;99.90
4564;DHT22;2294;51.818;8.484;2022-12-10T00:32:36;2.10;99.90
4564;DHT22;2294;51.818;8.484;2022-12-10T00:35:03;2.00;99.90
4564;DHT22;2294;51.818;8.484;2022-12-10T00:37:30;2.00;99.90
4564;DHT22;2294;51.818;8.484;2022-12-10T00:39:57;1.90;99.90
4564;DHT22;2294;51.818;8.484;2022-12-10T00:42:25;2.00;99.90
4564;DHT22;2294;51.818;8.484;2022-12-10T00:44:52;2.10;99.90
4564;DHT22;2294;51.818;8.484;2022-12-10T00:47:20;2.40;99.90
4564;DHT22;2294;51.818;8.484;2022-12-10T00:49:47;2.30;99.90
4564;DHT22;2294;51.818;8.484;2022-12-10T00:52:13;2.40;99.90
4564;DHT22;2294;51.818;8.484;2022-12-10T00:54:40;2.40;99.90
4564;DHT22;2294;51.818;8.484;2022-12-10T00:57:07;2.40;99.90
4564;DHT22;2294;51.818;8.484;2022-12-10T00:59:34;2.40;99.90
4564;DHT22;2294;51.818;8.484;2022-12-10T01:02:01;2.40;99.90
4564;DHT22;2294;51.818;8.484;2022-12-10T01:04:29;2.20;99.90
4564;DHT22;2294;51.818;8.484;2022-12-10T01:06:56;2.20;99.90
4564;DHT22;2294;51.818;8.484;2022-12-10T01:09:26;2.40;99.90
4564;DHT22;2294;51.818;8.484;2022-12-10T01:11:54;2.50;99.90
4564;DHT22;2294;51.818;8.484;2022-12-10T01:14:23;2.40;99.90
4564;DHT22;2294;51.818;8.484;2022-12-10T01:16:53;2.40;99.90
4564;DHT22;2294;51.818;8.484;2022-12-10T01:19:21;2.50;99.90
4564;DHT22;2294;51.818;8.484;2022-12-10T01:21:51;2.60;99.90
4564;DHT22;2294;51.818;8.484;2022-12-10T01:24:18;2.70;99.90
4564;DHT22;2294;51.818;8.484;2022-12-10T01:26:45;2.60;99.90
4564;DHT22;2294;51.818;8.484;2022-12-10T01:29:12;2.60;99.90
4564;DHT22;2294;51.818;8.484;2022-12-10T01:31:39;2.60;99.90
4564;DHT22;2294;51.818;8.484;2022-12-10T01:34:07;2.50;99.90
4564;DHT22;2294;51.818;8.484;2022-12-10T01:36:37;2.40;99.90
4564;DHT22;2294;51.818;8.484;2022-12-10T01:39:08;2.40;99.90
4564;DHT22;2294;51.818;8.484;2022-12-10T01:41:43;2.50;99.90
4564;DHT22;2294;51.818;8.484;2022-12-10T01:47:10;2.50;99.90
4564;DHT22;2294;51.818;8.484;2022-12-10T01:49:39;2.50;99.90
4564;DHT22;2294;51.818;8.484;2022-12-10T01:52:08;2.60;99.90
4564;DHT22;2294;51.818;8.484;2022-12-10T01:54:38;2.50;99.90
4564;DHT22;2294;51.818;8.484;2022-12-10T01:57:08;2.50;99.90
4564;DHT22;2294;51.818;8.484;2022-12-10T01:59:37;2.50;99.90
4564;DHT22;2294;51.818;8.484;2022-12-10T02:02:11;2.40;99.90
4564;DHT22;2294;51.818;8.484;2022-12-10T02:04:47;2.30;99.90
4564;DHT22;2294;51.818;8.484;2022-12-10T02:07:22;2.30;99.90
4564;DHT22;2294;51.818;8.484;2022-12-10T02:09:57;2.20;99.90
4564;DHT22;2294;51.818;8.484;2022-12-10T02:12:31;2.50;99.90
4564;DHT22;2294;51.818;8.484;2022-12-10T02:15:02;2.60;99.90
4564;DHT22;2294;51.818;8.484;2022-12-10T02:17:34;2.30;99.90
4564;DHT22;2294;51.818;8.484;2022-12-10T02:20:06;2.30;99.90
4564;DHT22;2294;51.818;8.484;2022-12-10T02:22:37;2.20;99.90
4564;DHT22;2294;51.818;8.484;2022-12-10T02:25:08;2.30;99.90
4564;DHT22;2294;51.818;8.484;2022-12-10T02:27:42;2.50;99.90
4564;DHT22;2294;51.818;8.484;2022-12-10T02:30:14;2.60;99.90
4564;DHT22;2294;51.818;8.484;2022-12-10T02:32:44;2.60;99.90
4564;DHT22;2294;51.818;8.484;2022-12-10T02:35:15;2.60;99.90
4564;DHT22;2294;51.818;8.484;2022-12-10T02:37:46;2.70;99.90
4564;DHT22;2294;51.818;8.484;2022-12-10T02:40:17;2.70;99.90
4564;DHT22;2294;51.818;8.484;2022-12-10T02:42:48;2.60;99.90
4564;DHT22;2294;51.818;8.484;2022-12-10T02:45:18;2.70;99.90
4564;DHT22;2294;51.818;8.484;2022-12-10T02:47:46;2.80;99.90
4564;DHT22;2294;51.818;8.484;2022-12-10T02:50:14;2.80;99.90
4564;DHT22;2294;51.818;8.484;2022-12-10T02:52:42;2.80;99.90
4564;DHT22;2294;51.818;8.484;2022-12-10T02:55:11;2.80;99.90
4564;DHT22;2294;51.818;8.484;2022-12-10T02:57:44;3.40;99.90
4564;DHT22;2294;51.818;8.484;2022-12-10T03:00:19;2.90;99.90
4564;DHT22;2294;51.818;8.484;2022-12-10T03:03:03;2.90;99.90
4564;DHT22;2294;51.818;8.484;2022-12-10T03:05:35;2.90;99.90
4564;DHT22;2294;51.818;8.484;2022-12-10T03:08:12;2.90;99.90
4564;DHT22;2294;51.818;8.484;2022-12-10T03:10:45;2.80;99.90
4564;DHT22;2294;51.818;8.484;2022-12-10T03:13:17;2.80;99.90
4564;DHT22;2294;51.818;8.484;2022-12-10T03:15:47;3.00;99.90
4564;DHT22;2294;51.818;8.484;2022-12-10T03:18:17;2.90;99.90
4564;DHT22;2294;51.818;8.484;2022-12-10T03:20:46;2.90;99.90
4564;DHT22;2294;51.818;8.484;2022-12-10T03:23:16;2.70;99.90
4564;DHT22;2294;51.818;8.484;2022-12-10T03:25:44;2.80;99.90
4564;DHT22;2294;51.818;8.484;2022-12-10T03:28:13;2.80;99.90
4564;DHT22;2294;51.818;8.484;2022-12-10T03:30:42;2.80;99.90
4564;DHT22;2294;51.818;8.484;2022-12-10T03:33:11;2.80;99.90
4564;DHT22;2294;51.818;8.484;2022-12-10T03:35:39;2.80;99.90
4564;DHT22;2294;51.818;8.484;2022-12-10T03:38:06;2.90;99.90
4564;DHT22;2294;51.818;8.484;2022-12-10T03:40:34;2.80;99.90
4564;DHT22;2294;51.818;8.484;2022-12-10T03:43:01;2.80;99.90
4564;DHT22;2294;51.818;8.484;2022-12-10T03:45:27;2.70;99.90
4564;DHT22;2294;51.818;8.484;2022-12-10T03:47:54;2.80;99.90
4564;DHT22;2294;51.818;8.484;2022-12-10T03:50:23;2.80;99.90
4564;DHT22;2294;51.818;8.484;2022-12-10T03:52:49;2.80;99.90
4564;DHT22;2294;51.818;8.484;2022-12-10T03:55:16;2.80;99.90
4564;DHT22;2294;51.818;8.484;2022-12-10T03:57:43;2.90;99.90
4564;DHT22;2294;51.818;8.484;2022-12-10T04:00:11;2.80;99.90
4564;DHT22;2294;51.818;8.484;2022-12-10T04:02:38;2.80;99.90
4564;DHT22;2294;51.818;8.484;2022-12-10T04:05:06;2.90;99.90
4564;DHT22;2294;51.818;8.484;2022-12-10T04:07:34;2.90;99.90
4564;DHT22;2294;51.818;8.484;2022-12-10T04:10:02;2.80;99.90
4564;DHT22;2294;51.818;8.484;2022-12-10T04:12:29;2.90;99.90
4564;DHT22;2294;51.818;8.484;2022-12-10T04:14:56;2.80;99.90
4564;DHT22;2294;51.818;8.484;2022-12-10T04:17:40;2.80;99.90
4564;DHT22;2294;51.818;8.484;2022-12-10T04:20:08;2.70;99.90
4564;DHT22;2294;51.818;8.484;2022-12-10T04:22:56;2.70;99.90
4564;DHT22;2294;51.818;8.484;2022-12-10T04:25:40;2.70;99.90
4564;DHT22;2294;51.818;8.484;2022-12-10T04:28:24;2.80;99.90
4564;DHT22;2294;51.818;8.484;2022-12-10T04:30:51;2.80;99.90
4564;DHT22;2294;51.818;8.484;2022-12-10T04:33:18;2.80;99.90
4564;DHT22;2294;51.818;8.484;2022-12-10T04:35:45;2.70;99.90
4564;DHT22;2294;51.818;8.484;2022-12-10T04:38:13;2.60;99.90
4564;DHT22;2294;51.818;8.484;2022-12-10T04:40:40;2.60;99.90
4564;DHT22;2294;51.818;8.484;2022-12-10T04:43:07;2.70;99.90
4564;DHT22;2294;51.818;8.484;2022-12-10T04:45:34;2.80;99.90
4564;DHT22;2294;51.818;8.484;2022-12-10T04:48:02;2.70;99.90
4564;DHT22;2294;51.818;8.484;2022-12-10T04:50:28;2.80;99.90
4564;DHT22;2294;51.818;8.484;2022-12-10T04:52:55;2.80;99.90
4564;DHT22;2294;51.818;8.484;2022-12-10T04:55:23;2.60;99.90
4564;DHT22;2294;51.818;8.484;2022-12-10T04:57:50;2.60;99.90
4564;DHT22;2294;51.818;8.484;2022-12-10T05:00:18;2.60;99.90
4564;DHT22;2294;51.818;8.484;2022-12-10T05:02:48;2.60;99.90
4564;DHT22;2294;51.818;8.484;2022-12-10T05:05:15;2.70;99.90
4564;DHT22;2294;51.818;8.484;2022-12-10T05:07:41;2.70;99.90
4564;DHT22;2294;51.818;8.484;2022-12-10T05:10:08;2.60;99.90
4564;DHT22;2294;51.818;8.484;2022-12-10T05:12:37;2.60;99.90
4564;DHT22;2294;51.818;8.484;2022-12-10T05:15:04;2.60;99.90
4564;DHT22;2294;51.818;8.484;2022-12-10T05:17:32;2.70;99.90
4564;DHT22;2294;51.818;8.484;2022-12-10T05:19:59;2.70;99.90
4564;DHT22;2294;51.818;8.484;2022-12-10T05:22:26;2.70;99.90
4564;DHT22;2294;51.818;8.484;2022-12-10T05:25:10;2.70;99.90
4564;DHT22;2294;51.818;8.484;2022-12-10T05:27:39;2.70;99.90
4564;DHT22;2294;51.818;8.484;2022-12-10T05:30:07;2.70;99.90
4564;DHT22;2294;51.818;8.484;2022-12-10T05:32:35;2.80;99.90
4564;DHT22;2294;51.818;8.484;2022-12-10T05:35:02;2.70;99.90
4564;DHT22;2294;51.818;8.484;2022-12-10T05:37:29;2.50;99.90
4564;DHT22;2294;51.818;8.484;2022-12-10T05:39:56;2.40;99.90
4564;DHT22;2294;51.818;8.484;2022-12-10T05:42:23;2.50;99.90
4564;DHT22;2294;51.818;8.484;2022-12-10T05:44:51;2.50;99.90
4564;DHT22;2294;51.818;8.484;2022-12-10T05:47:18;2.70;99.90
4564;DHT22;2294;51.818;8.484;2022-12-10T05:49:45;2.60;99.90
4564;DHT22;2294;51.818;8.484;2022-12-10T05:52:12;2.60;99.90
4564;DHT22;2294;51.818;8.484;2022-12-10T05:54:39;2.60;99.90
4564;DHT22;2294;51.818;8.484;2022-12-10T05:57:06;2.70;99.90
4564;DHT22;2294;51.818;8.484;2022-12-10T05:59:33;2.60;99.90
4564;DHT22;2294;51.818;8.484;2022-12-10T06:02:01;2.50;99.90
4564;DHT22;2294;51.818;8.484;2022-12-10T06:04:28;2.50;99.90
4564;DHT22;2294;51.818;8.484;2022-12-10T06:06:55;2.60;99.90
4564;DHT22;2294;51.818;8.484;2022-12-10T06:09:22;2.60;99.90
4564;DHT22;2294;51.818;8.484;2022-12-10T06:11:49;2.60;99.90
4564;DHT22;2294;51.818;8.484;2022-12-10T06:14:15;2.50;99.90
4564;DHT22;2294;51.818;8.484;2022-12-10T06:16:42;2.40;99.90
4564;DHT22;2294;51.818;8.484;2022-12-10T06:19:10;2.60;99.90
4564;DHT22;2294;51.818;8.484;2022-12-10T06:21:37;2.60;99.90
4564;DHT22;2294;51.818;8.484;2022-12-10T06:24:05;2.60;99.90
4564;DHT22;2294;51.818;8.484;2022-12-10T06:26:32;2.50;99.90
4564;DHT22;2294;51.818;8.484;2022-12-10T06:28:59;2.50;99.90
4564;DHT22;2294;51.818;8.484;2022-12-10T06:31:26;2.50;99.90
4564;DHT22;2294;51.818;8.484;2022-12-10T06:33:53;2.50;99.90
4564;DHT22;2294;51.818;8.484;2022-12-10T06:36:22;2.60;99.90
4564;DHT22;2294;51.818;8.484;2022-12-10T06:38:48;2.60;99.90
4564;DHT22;2294;51.818;8.484;2022-12-10T06:41:17;2.50;99.90
4564;DHT22;2294;51.818;8.484;2022-12-10T06:43:45;2.50;99.90
4564;DHT22;2294;51.818;8.484;2022-12-10T06:46:14;2.50;99.90
4564;DHT22;2294;51.818;8.484;2022-12-10T06:48:42;2.50;99.90
4564;DHT22;2294;51.818;8.484;2022-12-10T06:51:09;2.60;99.90
4564;DHT22;2294;51.818;8.484;2022-12-10T06:53:38;2.60;99.90
4564;DHT22;2294;51.818;8.484;2022-12-10T06:56:06;2.60;99.90
4564;DHT22;2294;51.818;8.484;2022-12-10T06:58:34;2.50;99.90
4564;DHT22;2294;51.818;8.484;2022-12-10T07:01:05;2.40;99.90
4564;DHT22;2294;51.818;8.484;2022-12-10T07:03:33;2.50;99.90
4564;DHT22;2294;51.818;8.484;2022-12-10T07:06:00;2.50;99.90
4564;DHT22;2294;51.818;8.484;2022-12-10T07:08:28;2.50;99.90
4564;DHT22;2294;51.818;8.484;2022-12-10T07:10:56;2.50;99.90
4564;DHT22;2294;51.818;8.484;2022-12-10T07:13:24;2.40;99.90
4564;DHT22;2294;51.818;8.484;2022-12-10T07:15:51;2.50;99.90
4564;DHT22;2294;51.818;8.484;2022-12-10T07:18:18;2.60;99.90
4564;DHT22;2294;51.818;8.484;2022-12-10T07:20:44;2.50;99.90
4564;DHT22;2294;51.818;8.484;2022-12-10T07:23:11;2.60;99.90
4564;DHT22;2294;51.818;8.484;2022-12-10T07:25:38;2.60;99.90
4564;DHT22;2294;51.818;8.484;2022-12-10T07:28:06;2.60;99.90
4564;DHT22;2294;51.818;8.484;2022-12-10T07:30:33;2.60;99.90
4564;DHT22;2294;51.818;8.484;2022-12-10T07:33:00;2.50;99.90
4564;DHT22;2294;51.818;8.484;2022-12-10T07:35:27;2.50;99.90
4564;DHT22;2294;51.818;8.484;2022-12-10T07:37:54;2.50;99.90
4564;DHT22;2294;51.818;8.484;2022-12-10T07:40:21;2.60;99.90
4564;DHT22;2294;51.818;8.484;2022-12-10T07:42:48;2.50;99.90
4564;DHT22;2294;51.818;8.484;2022-12-10T07:45:16;2.50;99.90
4564;DHT22;2294;51.818;8.484;2022-12-10T07:47:43;2.60;99.90
4564;DHT22;2294;51.818;8.484;2022-12-10T07:50:10;2.60;99.90
4564;DHT22;2294;51.818;8.484;2022-12-10T07:52:37;2.60;99.90
4564;DHT22;2294;51.818;8.484;2022-12-10T07:55:04;2.60;99.90
4564;DHT22;2294;51.818;8.484;2022-12-10T07:57:32;2.60;99.90
4564;DHT22;2294;51.818;8.484;2022-12-10T07:59:59;2.60;99.90
4564;DHT22;2294;51.818;8.484;2022-12-10T08:02:27;2.70;99.90
4564;DHT22;2294;51.818;8.484;2022-12-10T08:04:54;2.60;99.90
4564;DHT22;2294;51.818;8.484;2022-12-10T08:07:21;2.60;99.90
4564;DHT22;2294;51.818;8.484;2022-12-10T08:09:48;2.60;99.90
4564;DHT22;2294;51.818;8.484;2022-12-10T08:12:14;2.70;99.90
4564;DHT22;2294;51.818;8.484;2022-12-10T08:14:41;2.70;99.90
4564;DHT22;2294;51.818;8.484;2022-12-10T08:17:08;2.70;99.90
4564;DHT22;2294;51.818;8.484;2022-12-10T08:19:36;2.70;99.90
4564;DHT22;2294;51.818;8.484;2022-12-10T08:22:03;2.80;99.90
4564;DHT22;2294;51.818;8.484;2022-12-10T08:24:30;2.80;99.90
4564;DHT22;2294;51.818;8.484;2022-12-10T08:26:57;2.90;99.90
4564;DHT22;2294;51.818;8.484;2022-12-10T08:29:24;2.60;99.90
4564;DHT22;2294;51.818;8.484;2022-12-10T08:31:51;2.80;99.90
4564;DHT22;2294;51.818;8.484;2022-12-10T08:34:18;2.90;99.90
4564;DHT22;2294;51.818;8.484;2022-12-10T08:36:47;3.00;99.90
4564;DHT22;2294;51.818;8.484;2022-12-10T08:39:14;2.80;99.90
4564;DHT22;2294;51.818;8.484;2022-12-10T08:41:43;2.90;99.90
4564;DHT22;2294;51.818;8.484;2022-12-10T08:44:10;3.00;99.90
4564;DHT22;2294;51.818;8.484;2022-12-10T08:46:37;2.90;99.90
4564;DHT22;2294;51.818;8.484;2022-12-10T08:49:05;3.00;99.90
4564;DHT22;2294;51.818;8.484;2022-12-10T08:51:33;2.90;99.90
4564;DHT22;2294;51.818;8.484;2022-12-10T08:54:01;3.00;99.90
4564;DHT22;2294;51.818;8.484;2022-12-10T08:56:28;3.00;99.90
4564;DHT22;2294;51.818;8.484;2022-12-10T08:58:55;3.10;99.90
4564;DHT22;2294;51.818;8.484;2022-12-10T09:01:22;3.10;99.90
4564;DHT22;2294;51.818;8.484;2022-12-10T09:03:49;3.10;99.90
4564;DHT22;2294;51.818;8.484;2022-12-10T09:06:18;3.10;99.90
4564;DHT22;2294;51.818;8.484;2022-12-10T09:08:46;3.20;99.90
4564;DHT22;2294;51.818;8.484;2022-12-10T09:11:16;3.20;99.90
4564;DHT22;2294;51.818;8.484;2022-12-10T09:13:43;3.20;99.90
4564;DHT22;2294;51.818;8.484;2022-12-10T09:16:10;3.20;99.90
4564;DHT22;2294;51.818;8.484;2022-12-10T09:18:38;3.20;99.90
4564;DHT22;2294;51.818;8.484;2022-12-10T09:21:06;3.20;99.90
4564;DHT22;2294;51.818;8.484;2022-12-10T09:23:33;3.30;99.90
4564;DHT22;2294;51.818;8.484;2022-12-10T09:26:00;3.30;99.90
4564;DHT22;2294;51.818;8.484;2022-12-10T09:28:28;3.40;99.90
4564;DHT22;2294;51.818;8.484;2022-12-10T09:30:56;3.40;99.90
4564;DHT22;2294;51.818;8.484;2022-12-10T09:33:23;3.40;99.90
4564;DHT22;2294;51.818;8.484;2022-12-10T09:35:50;3.50;99.90
4564;DHT22;2294;51.818;8.484;2022-12-10T09:38:17;3.50;99.90
4564;DHT22;2294;51.818;8.484;2022-12-10T09:40:48;3.40;99.90
4564;DHT22;2294;51.818;8.484;2022-12-10T09:43:20;3.30;99.90
4564;DHT22;2294;51.818;8.484;2022-12-10T09:46:00;3.30;99.90
4564;DHT22;2294;51.818;8.484;2022-12-10T09:48:33;3.30;99.90
4564;DHT22;2294;51.818;8.484;2022-12-10T09:51:07;3.40;99.90
4564;DHT22;2294;51.818;8.484;2022-12-10T09:53:38;3.40;99.90
4564;DHT22;2294;51.818;8.484;2022-12-10T09:56:05;3.40;99.90
4564;DHT22;2294;51.818;8.484;2022-12-10T09:58:34;3.50;99.90
4564;DHT22;2294;51.818;8.484;2022-12-10T10:01:05;3.50;99.90
4564;DHT22;2294;51.818;8.484;2022-12-10T10:03:37;3.40;99.90
4564;DHT22;2294;51.818;8.484;2022-12-10T10:06:05;3.40;99.90
4564;DHT22;2294;51.818;8.484;2022-12-10T10:08:35;3.40;99.90
4564;DHT22;2294;51.818;8.484;2022-12-10T10:11:03;3.50;99.90
4564;DHT22;2294;51.818;8.484;2022-12-10T10:13:34;3.50;99.90
4564;DHT22;2294;51.818;8.484;2022-12-10T10:16:19;3.40;99.90
4564;DHT22;2294;51.818;8.484;2022-12-10T10:18:52;3.40;99.90
4564;DHT22;2294;51.818;8.484;2022-12-10T10:21:22;3.40;99.90
4564;DHT22;2294;51.818;8.484;2022-12-10T10:23:49;3.40;99.90
4564;DHT22;2294;51.818;8.484;2022-12-10T10:26:17;3.40;99.90
4564;DHT22;2294;51.818;8.484;2022-12-10T10:28:44;3.30;99.90
4564;DHT22;2294;51.818;8.484;2022-12-10T10:31:18;3.50;99.90
4564;DHT22;2294;51.818;8.484;2022-12-10T10:33:51;3.60;99.90
4564;DHT22;2294;51.818;8.484;2022-12-10T10:36:23;3.40;99.90
4564;DHT22;2294;51.818;8.484;2022-12-10T10:38:51;3.50;99.90
4564;DHT22;2294;51.818;8.484;2022-12-10T10:41:18;3.40;99.90
4564;DHT22;2294;51.818;8.484;2022-12-10T10:43:58;3.30;99.90
4564;DHT22;2294;51.818;8.484;2022-12-10T10:46:27;3.60;99.90
4564;DHT22;2294;51.818;8.484;2022-12-10T10:49:13;3.60;99.90
4564;DHT22;2294;51.818;8.484;2022-12-10T10:51:43;3.50;99.90
4564;DHT22;2294;51.818;8.484;2022-12-10T10:54:11;3.50;99.90
4564;DHT22;2294;51.818;8.484;2022-12-10T10:56:41;3.30;99.90
4564;DHT22;2294;51.818;8.484;2022-12-10T10:59:28;3.40;99.90
4564;DHT22;2294;51.818;8.484;2022-12-10T11:02:01;3.50;99.90
4564;DHT22;2294;51.818;8.484;2022-12-10T11:04:35;3.50;99.90
4564;DHT22;2294;51.818;8.484;2022-12-10T11:07:04;3.60;99.90
4564;DHT22;2294;51.818;8.484;2022-12-10T11:09:33;3.50;99.90
4564;DHT22;2294;51.818;8.484;2022-12-10T11:12:02;3.50;99.90
4564;DHT22;2294;51.818;8.484;2022-12-10T11:14:31;3.70;99.90
4564;DHT22;2294;51.818;8.484;2022-12-10T11:17:19;3.70;99.90
4564;DHT22;2294;51.818;8.484;2022-12-10T11:19:55;3.60;99.90
4564;DHT22;2294;51.818;8.484;2022-12-10T11:22:23;3.20;99.90
4564;DHT22;2294;51.818;8.484;2022-12-10T11:24:51;3.40;99.90
4564;DHT22;2294;51.818;8.484;2022-12-10T11:27:29;3.30;99.90
4564;DHT22;2294;51.818;8.484;2022-12-10T11:30:02;3.40;99.90
4564;DHT22;2294;51.818;8.484;2022-12-10T11:32:46;3.40;99.90
4564;DHT22;2294;51.818;8.484;2022-12-10T11:35:20;3.60;99.90
4564;DHT22;2294;51.818;8.484;2022-12-10T11:37:56;3.60;99.90
4564;DHT22;2294;51.818;8.484;2022-12-10T11:40:38;3.50;99.90
4564;DHT22;2294;51.818;8.484;2022-12-10T11:43:22;3.80;99.90
4564;DHT22;2294;51.818;8.484;2022-12-10T11:46:01;3.60;99.90
4564;DHT22;2294;51.818;8.484;2022-12-10T11:48:44;3.50;99.90
4564;DHT22;2294;51.818;8.484;2022-12-10T11:51:21;3.60;99.90
4564;DHT22;2294;51.818;8.484;2022-12-10T11:54:02;3.60;99.90
4564;DHT22;2294;51.818;8.484;2022-12-10T11:56:33;3.50;99.90
4564;DHT22;2294;51.818;8.484;2022-12-10T11:59:19;3.80;99.90
4564;DHT22;2294;51.818;8.484;2022-12-10T12:01:59;3.80;99.90
4564;DHT22;2294;51.818;8.484;2022-12-10T12:04:45;3.80;99.90
4564;DHT22;2294;51.818;8.484;2022-12-10T12:07:33;3.60;99.90
4564;DHT22;2294;51.818;8.484;2022-12-10T12:10:32;3.10;99.90
4564;DHT22;2294;51.818;8.484;2022-12-10T12:13:05;2.80;99.90
4564;DHT22;2294;51.818;8.484;2022-12-10T12:15:37;2.60;99.90
4564;DHT22;2294;51.818;8.484;2022-12-10T12:18:11;2.50;99.90
4564;DHT22;2294;51.818;8.484;2022-12-10T12:20:45;2.70;99.90
4564;DHT22;2294;51.818;8.484;2022-12-10T12:23:16;3.00;99.90
4564;DHT22;2294;51.818;8.484;2022-12-10T12:25:47;2.90;99.90
4564;DHT22;2294;51.818;8.484;2022-12-10T12:28:20;2.70;99.90
4564;DHT22;2294;51.818;8.484;2022-12-10T12:30:56;2.80;99.90
4564;DHT22;2294;51.818;8.484;2022-12-10T12:33:28;2.70;99.90
4564;DHT22;2294;51.818;8.484;2022-12-10T12:36:02;2.80;99.90
4564;DHT22;2294;51.818;8.484;2022-12-10T12:38:37;2.60;99.90
4564;DHT22;2294;51.818;8.484;2022-12-10T12:41:15;2.50;99.90
4564;DHT22;2294;51.818;8.484;2022-12-10T12:43:48;2.40;99.90
4564;DHT22;2294;51.818;8.484;2022-12-10T12:46:26;2.60;99.90
4564;DHT22;2294;51.818;8.484;2022-12-10T12:48:56;2.60;99.90
4564;DHT22;2294;51.818;8.484;2022-12-10T12:51:29;2.50;99.90
4564;DHT22;2294;51.818;8.484;2022-12-10T12:53:59;2.70;99.90
4564;DHT22;2294;51.818;8.484;2022-12-10T12:56:40;2.60;99.90
4564;DHT22;2294;51.818;8.484;2022-12-10T12:59:15;2.80;99.90
4564;DHT22;2294;51.818;8.484;2022-12-10T13:01:50;2.90;99.90
4564;DHT22;2294;51.818;8.484;2022-12-10T13:04:18;2.80;99.90
4564;DHT22;2294;51.818;8.484;2022-12-10T13:07:09;2.50;99.90
4564;DHT22;2294;51.818;8.484;2022-12-10T13:09:43;2.50;99.90
4564;DHT22;2294;51.818;8.484;2022-12-10T13:12:24;2.80;99.90
4564;DHT22;2294;51.818;8.484;2022-12-10T13:15:03;2.80;99.90
4564;DHT22;2294;51.818;8.484;2022-12-10T13:17:39;2.80;99.90
4564;DHT22;2294;51.818;8.484;2022-12-10T13:20:40;3.00;99.90
4564;DHT22;2294;51.818;8.484;2022-12-10T13:23:30;3.10;99.90
4564;DHT22;2294;51.818;8.484;2022-12-10T13:25:58;3.00;99.90
4564;DHT22;2294;51.818;8.484;2022-12-10T13:28:30;3.10;99.90
4564;DHT22;2294;51.818;8.484;2022-12-10T13:31:16;3.20;99.90
4564;DHT22;2294;51.818;8.484;2022-12-10T13:33:47;3.20;99.90
4564;DHT22;2294;51.818;8.484;2022-12-10T13:36:21;3.20;99.90
4564;DHT22;2294;51.818;8.484;2022-12-10T13:39:13;3.20;99.90
4564;DHT22;2294;51.818;8.484;2022-12-10T13:45:16;3.20;99.90
4564;DHT22;2294;51.818;8.484;2022-12-10T13:47:51;3.00;99.90
4564;DHT22;2294;51.818;8.484;2022-12-10T13:50:22;3.10;99.90
4564;DHT22;2294;51.818;8.484;2022-12-10T13:52:58;3.10;99.90
4564;DHT22;2294;51.818;8.484;2022-12-10T13:55:35;3.10;99.90
4564;DHT22;2294;51.818;8.484;2022-12-10T13:58:26;2.90;99.90
4564;DHT22;2294;51.818;8.484;2022-12-10T14:00:58;2.90;99.90
4564;DHT22;2294;51.818;8.484;2022-12-10T14:03:47;2.90;99.90
4564;DHT22;2294;51.818;8.484;2022-12-10T14:06:18;2.90;99.90
4564;DHT22;2294;51.818;8.484;2022-12-10T14:08:57;2.90;99.90
4564;DHT22;2294;51.818;8.484;2022-12-10T14:11:30;2.90;99.90
4564;DHT22;2294;51.818;8.484;2022-12-10T14:13:59;2.90;99.90
4564;DHT22;2294;51.818;8.484;2022-12-10T14:16:30;2.70;99.90
4564;DHT22;2294;51.818;8.484;2022-12-10T14:18:59;2.80;99.90
4564;DHT22;2294;51.818;8.484;2022-12-10T14:21:32;2.70;99.90
4564;DHT22;2294;51.818;8.484;2022-12-10T14:24:00;2.70;99.90
4564;DHT22;2294;51.818;8.484;2022-12-10T14:26:31;2.60;99.90
4564;DHT22;2294;51.818;8.484;2022-12-10T14:29:00;2.60;99.90
4564;DHT22;2294;51.818;8.484;2022-12-10T14:31:30;2.70;99.90
4564;DHT22;2294;51.818;8.484;2022-12-10T14:34:00;2.80;99.90
4564;DHT22;2294;51.818;8.484;2022-12-10T14:36:30;2.70;99.90
4564;DHT22;2294;51.818;8.484;2022-12-10T14:38:58;2.70;99.90
4564;DHT22;2294;51.818;8.484;2022-12-10T14:41:29;2.60;99.90
4564;DHT22;2294;51.818;8.484;2022-12-10T14:44:01;2.70;99.90
4564;DHT22;2294;51.818;8.484;2022-12-10T14:46:31;2.50;99.90
4564;DHT22;2294;51.818;8.484;2022-12-10T14:48:58;2.50;99.90
4564;DHT22;2294;51.818;8.484;2022-12-10T14:51:30;2.60;99.90
4564;DHT22;2294;51.818;8.484;2022-12-10T14:53:58;2.60;99.90
4564;DHT22;2294;51.818;8.484;2022-12-10T14:56:27;2.60;99.90
4564;DHT22;2294;51.818;8.484;2022-12-10T14:59:03;2.40;99.90
4564;DHT22;2294;51.818;8.484;2022-12-10T15:01:32;2.50;99.90
4564;DHT22;2294;51.818;8.484;2022-12-10T15:04:03;2.40;99.90
4564;DHT22;2294;51.818;8.484;2022-12-10T15:06:34;2.50;99.90
4564;DHT22;2294;51.818;8.484;2022-12-10T15:09:03;2.40;99.90
4564;DHT22;2294;51.818;8.484;2022-12-10T15:11:31;2.40;99.90
4564;DHT22;2294;51.818;8.484;2022-12-10T15:14:01;2.30;99.90
4564;DHT22;2294;51.818;8.484;2022-12-10T15:16:31;2.30;99.90
4564;DHT22;2294;51.818;8.484;2022-12-10T15:19:18;2.30;99.90
4564;DHT22;2294;51.818;8.484;2022-12-10T15:21:47;2.30;99.90
4564;DHT22;2294;51.818;8.484;2022-12-10T15:24:19;2.50;99.90
4564;DHT22;2294;51.818;8.484;2022-12-10T15:26:49;2.50;99.90
4564;DHT22;2294;51.818;8.484;2022-12-10T15:29:34;2.50;99.90
4564;DHT22;2294;51.818;8.484;2022-12-10T15:32:06;2.40;99.90
4564;DHT22;2294;51.818;8.484;2022-12-10T15:34:42;2.30;99.90
4564;DHT22;2294;51.818;8.484;2022-12-10T15:37:21;2.40;99.90
4564;DHT22;2294;51.818;8.484;2022-12-10T15:39:52;2.50;99.90
4564;DHT22;2294;51.818;8.484;2022-12-10T15:42:36;2.30;99.90
4564;DHT22;2294;51.818;8.484;2022-12-10T15:45:15;2.50;99.90
4564;DHT22;2294;51.818;8.484;2022-12-10T15:47:42;2.50;99.90
4564;DHT22;2294;51.818;8.484;2022-12-10T15:50:10;2.50;99.90
4564;DHT22;2294;51.818;8.484;2022-12-10T15:52:37;2.50;99.90
4564;DHT22;2294;51.818;8.484;2022-12-10T15:55:05;2.50;99.90
4564;DHT22;2294;51.818;8.484;2022-12-10T15:57:33;2.50;99.90
4564;DHT22;2294;51.818;8.484;2022-12-10T16:00:03;2.50;99.90
4564;DHT22;2294;51.818;8.484;2022-12-10T16:02:36;2.50;99.90
4564;DHT22;2294;51.818;8.484;2022-12-10T16:05:11;2.60;99.90
4564;DHT22;2294;51.818;8.484;2022-12-10T16:07:39;2.60;99.90
4564;DHT22;2294;51.818;8.484;2022-12-10T16:10:06;2.50;99.90
4564;DHT22;2294;51.818;8.484;2022-12-10T16:12:35;2.50;99.90
4564;DHT22;2294;51.818;8.484;2022-12-10T16:15:04;2.50;99.90
4564;DHT22;2294;51.818;8.484;2022-12-10T16:17:33;2.60;99.90
4564;DHT22;2294;51.818;8.484;2022-12-10T16:20:05;2.50;99.90
4564;DHT22;2294;51.818;8.484;2022-12-10T16:22:37;2.50;99.90
4564;DHT22;2294;51.818;8.484;2022-12-10T16:25:04;2.50;99.90
4564;DHT22;2294;51.818;8.484;2022-12-10T16:27:31;2.40;99.90
4564;DHT22;2294;51.818;8.484;2022-12-10T16:30:00;2.50;99.90
4564;DHT22;2294;51.818;8.484;2022-12-10T16:32:27;2.50;99.90
4564;DHT22;2294;51.818;8.484;2022-12-10T16:34:55;2.50;99.90
4564;DHT22;2294;51.818;8.484;2022-12-10T16:37:22;2.50;99.90
4564;DHT22;2294;51.818;8.484;2022-12-10T16:39:49;2.50;99.90
4564;DHT22;2294;51.818;8.484;2022-12-10T16:42:16;2.40;99.90
4564;DHT22;2294;51.818;8.484;2022-12-10T16:44:43;2.50;99.90